createdAt,value
2022-08-01T00:00:09.959Z,75276.28
2022-08-01T00:02:41.251Z,75280.13
2022-08-01T00:05:09.664Z,75283.97
2022-08-01T00:07:36.520Z,75285.91
2022-08-01T00:10:12.196Z,75285.91
2022-08-01T00:12:39.633Z,75291.69
2022-08-01T00:15:09.062Z,75287.81
2022-08-01T00:17:36.457Z,75295.53
2022-08-01T00:20:06.324Z,75299.38
2022-08-01T00:22:33.632Z,75307.09
2022-08-01T00:25:00.933Z,75310.94
2022-08-01T00:27:28.114Z,75310.94
2022-08-01T00:30:11.109Z,75314.78
2022-08-01T00:32:39.702Z,75322.50
2022-08-01T00:35:07.513Z,75326.34
2022-08-01T00:37:34.366Z,75326.34
2022-08-01T00:40:01.136Z,75322.50
2022-08-01T00:42:27.902Z,75318.66
2022-08-01T00:44:54.809Z,75314.78
2022-08-01T00:47:21.727Z,75310.94
2022-08-01T00:49:48.580Z,75314.78
2022-08-01T00:52:15.587Z,75307.09
2022-08-01T00:54:42.661Z,75309.00
2022-08-01T00:57:10.757Z,75303.25
2022-08-01T00:59:38.071Z,75310.94
2022-08-01T01:02:14.906Z,75314.78
2022-08-01T01:04:43.992Z,75309.00
2022-08-01T01:07:16.926Z,75307.09
2022-08-01T01:10:30.259Z,75312.88
2022-08-01T01:13:06.671Z,75318.66
2022-08-01T01:15:51.015Z,75318.66
2022-08-01T01:18:20.645Z,75326.34
2022-08-01T01:21:14.908Z,75318.66
2022-08-01T01:23:47.243Z,75314.78
2022-08-01T01:26:33.585Z,75309.00
2022-08-01T01:29:09.192Z,75307.09
2022-08-01T01:31:45.640Z,75310.94
2022-08-01T01:34:14.679Z,75326.34
2022-08-01T01:36:44.813Z,75343.69
2022-08-01T01:39:12.880Z,75349.47
2022-08-01T01:41:40.240Z,75353.31
2022-08-01T01:44:09.388Z,75353.31
2022-08-01T01:46:37.765Z,75359.09
2022-08-01T01:49:06.689Z,75364.88
2022-08-01T01:51:34.426Z,75362.94
2022-08-01T01:54:03.496Z,75366.81
2022-08-01T01:56:32.077Z,75374.50
2022-08-01T01:59:02.147Z,75376.44
2022-08-01T02:01:58.479Z,75380.28
2022-08-01T02:04:21.032Z,75372.59
2022-08-01T02:06:51.185Z,75374.50
2022-08-01T02:09:19.698Z,75361.03
2022-08-01T02:12:07.193Z,75353.31
2022-08-01T02:14:38.992Z,75353.31
2022-08-01T02:17:06.131Z,75341.75
2022-08-01T02:19:37.993Z,75335.97
2022-08-01T02:22:14.569Z,75334.06
2022-08-01T02:24:55.545Z,75322.50
2022-08-01T02:27:27.163Z,75307.09
2022-08-01T02:30:01.208Z,75303.25
2022-08-01T02:32:39.635Z,75299.38
2022-08-01T02:35:11.116Z,75287.81
2022-08-01T02:37:42.991Z,75287.81
2022-08-01T02:40:14.532Z,75283.97
2022-08-01T02:42:46.504Z,75282.03
2022-08-01T02:45:14.727Z,75278.19
2022-08-01T02:47:44.635Z,75274.34
2022-08-01T02:50:38.280Z,75268.56
2022-08-01T02:53:07.874Z,75276.28
2022-08-01T02:55:36.443Z,75268.56
2022-08-01T02:58:04.345Z,75260.84
2022-08-01T03:00:32.171Z,75257.00
2022-08-01T03:03:00.948Z,75253.16
2022-08-01T03:05:28.616Z,75257.00
2022-08-01T03:08:02.732Z,75253.16
2022-08-01T03:10:33.768Z,75249.31
2022-08-01T03:13:02.573Z,75253.16
2022-08-01T03:15:32.272Z,75241.59
2022-08-01T03:18:01.943Z,75245.44
2022-08-01T03:20:31.637Z,75247.38
2022-08-01T03:23:00.951Z,75251.22
2022-08-01T03:25:30.176Z,75249.31
2022-08-01T03:28:00.754Z,75245.44
2022-08-01T03:30:31.126Z,75237.75
2022-08-01T03:32:58.514Z,75233.88
2022-08-01T03:35:31.886Z,75231.97
2022-08-01T03:38:16.924Z,75235.81
2022-08-01T03:41:22.137Z,75233.88
2022-08-01T03:44:21.464Z,75230.03
2022-08-01T03:46:51.101Z,75233.88
2022-08-01T03:49:41.170Z,75222.34
2022-08-01T03:52:10.465Z,75206.91
2022-08-01T03:54:42.096Z,75212.69
2022-08-01T03:57:23.362Z,75179.94
2022-08-01T04:00:00.054Z,75074.00
2022-08-01T04:02:28.620Z,75066.31
2022-08-01T04:04:55.984Z,75083.66
2022-08-01T04:07:27.663Z,75110.63
2022-08-01T04:09:54.841Z,75137.56
2022-08-01T04:12:22.568Z,75154.91
2022-08-01T04:14:50.218Z,75160.69
2022-08-01T04:17:18.192Z,75166.47
2022-08-01T04:19:47.221Z,75172.25
2022-08-01T04:22:16.062Z,75176.09
2022-08-01T04:24:54.671Z,75176.09
2022-08-01T04:27:49.125Z,75179.94
2022-08-01T04:30:20.170Z,75170.31
2022-08-01T04:32:48.696Z,75162.63
2022-08-01T04:35:23.121Z,75156.84
2022-08-01T04:38:07.511Z,75139.50
2022-08-01T04:40:36.940Z,75129.88
2022-08-01T04:43:04.564Z,75118.31
2022-08-01T04:45:33.682Z,75112.53
2022-08-01T04:48:01.411Z,75112.53
2022-08-01T04:50:29.161Z,75106.75
2022-08-01T04:52:56.082Z,75099.06
2022-08-01T04:55:22.943Z,75083.66
2022-08-01T04:57:50.173Z,75072.09
2022-08-01T05:00:19.974Z,75064.38
2022-08-01T05:02:47.973Z,75048.97
2022-08-01T05:05:15.893Z,75037.41
2022-08-01T05:07:45.249Z,75020.09
2022-08-01T05:10:13.281Z,75006.59
2022-08-01T05:12:40.288Z,74998.91
2022-08-01T05:15:11.736Z,74979.63
2022-08-01T05:17:43.498Z,74968.06
2022-08-01T05:20:12.517Z,74937.25
2022-08-01T05:22:39.615Z,74919.91
2022-08-01T05:25:07.169Z,74910.28
2022-08-01T05:27:38.764Z,74906.44
2022-08-01T05:30:10.029Z,74904.50
2022-08-01T05:32:39.497Z,74914.16
2022-08-01T05:35:07.133Z,74921.84
2022-08-01T05:37:34.080Z,74921.84
2022-08-01T05:40:01.503Z,74918.00
2022-08-01T05:42:28.248Z,74914.16
2022-08-01T05:44:55.030Z,74906.44
2022-08-01T05:47:21.823Z,74856.38
2022-08-01T05:49:48.672Z,74675.31
2022-08-01T05:52:15.594Z,74446.13
2022-08-01T05:54:42.600Z,74340.22
2022-08-01T05:57:09.533Z,74347.91
2022-08-01T05:59:38.036Z,74367.19
2022-08-01T06:02:05.399Z,74378.72
2022-08-01T06:04:32.489Z,74347.91
2022-08-01T06:06:59.408Z,74251.63
2022-08-01T06:09:26.335Z,74228.53
2022-08-01T06:11:53.192Z,74253.56
2022-08-01T06:14:19.952Z,74386.44
2022-08-01T06:16:47.240Z,74405.69
2022-08-01T06:19:13.998Z,74403.78
2022-08-01T06:21:40.806Z,74330.59
2022-08-01T06:24:07.765Z,74213.13
2022-08-01T06:26:34.513Z,74061.00
2022-08-01T06:29:01.290Z,73989.75
2022-08-01T06:31:33.158Z,73724.03
2022-08-01T06:34:00.660Z,73862.66
2022-08-01T06:36:27.783Z,73739.44
2022-08-01T06:38:55.377Z,73439.06
2022-08-01T06:41:22.319Z,73419.81
2022-08-01T06:43:49.248Z,73650.88
2022-08-01T06:46:16.044Z,73331.25
2022-08-01T06:48:43.702Z,73573.84
2022-08-01T06:51:10.663Z,73762.53
2022-08-01T06:53:38.753Z,73824.16
2022-08-01T06:56:07.168Z,73962.78
2022-08-01T06:58:35.480Z,74018.63
2022-08-01T07:01:13.845Z,74043.66
2022-08-01T07:03:54.635Z,73978.19
2022-08-01T07:06:23.965Z,73958.94
2022-08-01T07:08:51.183Z,74030.19
2022-08-01T07:11:18.136Z,74043.66
2022-08-01T07:13:46.870Z,74101.44
2022-08-01T07:16:14.873Z,74136.09
2022-08-01T07:18:42.463Z,74240.06
2022-08-01T07:21:16.804Z,74209.25
2022-08-01T07:23:56.840Z,74213.13
2022-08-01T07:26:23.746Z,74197.72
2022-08-01T07:28:50.636Z,74182.31
2022-08-01T07:31:17.549Z,74147.66
2022-08-01T07:33:48.460Z,74103.34
2022-08-01T07:36:16.927Z,73985.91
2022-08-01T07:38:44.065Z,73881.91
2022-08-01T07:41:11.104Z,73839.56
2022-08-01T07:43:38.033Z,73831.84
2022-08-01T07:46:05.723Z,73843.41
2022-08-01T07:48:32.697Z,73839.56
2022-08-01T07:50:59.688Z,73824.16
2022-08-01T07:53:26.787Z,73724.03
2022-08-01T07:55:56.355Z,73593.09
2022-08-01T07:58:23.089Z,73596.94
2022-08-01T08:00:49.849Z,73635.47
2022-08-01T08:03:16.597Z,73496.84
2022-08-01T08:05:58.008Z,73419.81
2022-08-01T08:08:27.131Z,73298.53
2022-08-01T08:10:53.884Z,73242.69
2022-08-01T08:13:20.956Z,73269.66
2022-08-01T08:15:48.889Z,73327.41
2022-08-01T08:18:16.470Z,73298.53
2022-08-01T08:20:44.597Z,73250.41
2022-08-01T08:23:42.464Z,73467.97
2022-08-01T08:26:11.875Z,73546.88
2022-08-01T08:28:40.263Z,73504.53
2022-08-01T08:31:25.406Z,73519.94
2022-08-01T08:33:55.670Z,73539.19
2022-08-01T08:36:22.538Z,73579.63
2022-08-01T08:38:58.792Z,73589.25
2022-08-01T08:41:25.649Z,73679.75
2022-08-01T08:43:52.485Z,73693.22
2022-08-01T08:46:28.254Z,73789.50
2022-08-01T08:48:56.950Z,73835.69
2022-08-01T08:51:27.722Z,73916.56
2022-08-01T08:53:58.973Z,73901.16
2022-08-01T08:56:28.219Z,73881.91
2022-08-01T08:58:55.469Z,73889.63
2022-08-01T09:01:23.054Z,73974.34
2022-08-01T09:03:50.054Z,73928.13
2022-08-01T09:06:16.847Z,73978.19
2022-08-01T09:08:43.720Z,73991.66
2022-08-01T09:11:12.438Z,74035.97
2022-08-01T09:13:45.257Z,74005.16
2022-08-01T09:16:18.335Z,73976.25
2022-08-01T09:18:45.900Z,73939.69
2022-08-01T09:21:25.067Z,73931.97
2022-08-01T09:23:55.161Z,73903.09
2022-08-01T09:26:30.991Z,73797.19
2022-08-01T09:28:58.322Z,73750.97
2022-08-01T09:31:28.166Z,73697.06
2022-08-01T09:34:05.601Z,73804.91
2022-08-01T09:36:49.425Z,73677.81
2022-08-01T09:39:16.685Z,73708.63
2022-08-01T09:41:43.614Z,73616.19
2022-08-01T09:44:10.437Z,73614.28
2022-08-01T09:46:50.461Z,73658.56
2022-08-01T09:49:50.517Z,73650.88
2022-08-01T09:52:20.116Z,73548.81
2022-08-01T09:55:05.755Z,73458.31
2022-08-01T09:57:32.674Z,73460.25
2022-08-01T10:00:01.992Z,73450.63
2022-08-01T10:02:41.756Z,73571.91
2022-08-01T10:05:11.292Z,73581.56
2022-08-01T10:08:07.835Z,73516.09
2022-08-01T10:10:37.432Z,73612.34
2022-08-01T10:13:05.257Z,73687.44
2022-08-01T10:15:36.944Z,73608.50
2022-08-01T10:18:16.851Z,73639.31
2022-08-01T10:20:56.774Z,73587.31
2022-08-01T10:23:40.197Z,73535.34
2022-08-01T10:26:10.906Z,73506.47
2022-08-01T10:28:39.660Z,73473.72
2022-08-01T10:31:12.508Z,73412.13
2022-08-01T10:33:51.822Z,73408.28
2022-08-01T10:36:25.423Z,73589.25
2022-08-01T10:38:55.583Z,73516.09
2022-08-01T10:41:22.841Z,73496.84
2022-08-01T10:43:49.772Z,73571.91
2022-08-01T10:46:19.274Z,73612.34
2022-08-01T10:49:01.995Z,73647.00
2022-08-01T10:51:52.316Z,73691.28
2022-08-01T10:54:16.254Z,73712.47
2022-08-01T10:56:51.409Z,73697.06
2022-08-01T10:59:49.361Z,73747.13
2022-08-01T11:02:11.161Z,73781.78
2022-08-01T11:04:56.719Z,73793.34
2022-08-01T11:07:37.224Z,73685.53
2022-08-01T11:10:17.646Z,73656.63
2022-08-01T11:12:44.439Z,73656.63
2022-08-01T11:15:11.144Z,73589.25
2022-08-01T11:17:42.474Z,73554.59
2022-08-01T11:20:16.295Z,73548.81
2022-08-01T11:23:03.602Z,73508.38
2022-08-01T11:26:05.401Z,73492.97
2022-08-01T11:28:32.359Z,73477.59
2022-08-01T11:31:14.195Z,73412.13
2022-08-01T11:33:45.644Z,73473.72
2022-08-01T11:36:32.213Z,73587.31
2022-08-01T11:39:13.078Z,73531.50
2022-08-01T11:41:42.205Z,73519.94
2022-08-01T11:44:18.511Z,73469.88
2022-08-01T11:47:13.435Z,73527.63
2022-08-01T11:49:49.156Z,73467.97
2022-08-01T11:52:19.372Z,73571.91
2022-08-01T11:54:54.770Z,73616.19
2022-08-01T11:57:34.359Z,73489.13
2022-08-01T12:00:08.505Z,73421.75
2022-08-01T12:02:42.010Z,73408.28
2022-08-01T12:05:15.835Z,73362.06
2022-08-01T12:07:44.784Z,73346.66
2022-08-01T12:10:14.386Z,73321.63
2022-08-01T12:12:50.550Z,73581.56
2022-08-01T12:15:18.691Z,73523.78
2022-08-01T12:17:58.392Z,73458.31
2022-08-01T12:20:34.364Z,73481.44
2022-08-01T12:23:03.827Z,73439.06
2022-08-01T12:25:30.917Z,73423.69
2022-08-01T12:28:02.207Z,73383.25
2022-08-01T12:30:31.966Z,73379.41
2022-08-01T12:32:59.448Z,73369.75
2022-08-01T12:35:28.654Z,73369.75
2022-08-01T12:37:58.239Z,73427.53
2022-08-01T12:40:43.312Z,73435.22
2022-08-01T12:43:27.343Z,73381.31
2022-08-01T12:45:57.445Z,73437.16
2022-08-01T12:48:25.883Z,73469.88
2022-08-01T12:50:53.887Z,73483.34
2022-08-01T12:53:21.734Z,73435.22
2022-08-01T12:55:59.221Z,73373.63
2022-08-01T12:58:34.449Z,73408.28
2022-08-01T13:01:07.045Z,73462.19
2022-08-01T13:03:34.756Z,73466.03
2022-08-01T13:06:01.678Z,73400.56
2022-08-01T13:08:33.903Z,73421.75
2022-08-01T13:11:15.939Z,73516.09
2022-08-01T13:13:54.882Z,73516.09
2022-08-01T13:16:30.376Z,73519.94
2022-08-01T13:19:09.955Z,73591.19
2022-08-01T13:21:54.258Z,73543.03
2022-08-01T13:24:29.521Z,73570.00
2022-08-01T13:27:02.270Z,73593.09
2022-08-01T13:29:42.408Z,73654.72
2022-08-01T13:32:29.123Z,73781.78
2022-08-01T13:35:08.772Z,73806.81
2022-08-01T13:37:39.013Z,73776.00
2022-08-01T13:40:07.470Z,73766.38
2022-08-01T13:42:34.436Z,73699.00
2022-08-01T13:45:01.336Z,73645.09
2022-08-01T13:47:32.019Z,73668.19
2022-08-01T13:50:04.672Z,73606.56
2022-08-01T13:52:31.978Z,73677.81
2022-08-01T13:54:59.920Z,73668.19
2022-08-01T13:57:36.919Z,73608.50
2022-08-01T14:00:09.670Z,73627.75
2022-08-01T14:02:39.296Z,73589.25
2022-08-01T14:05:14.552Z,73666.25
2022-08-01T14:07:42.385Z,73712.47
2022-08-01T14:10:19.290Z,73789.50
2022-08-01T14:12:50.633Z,73789.50
2022-08-01T14:15:37.579Z,73837.63
2022-08-01T14:18:07.583Z,73804.91
2022-08-01T14:20:35.544Z,73864.59
2022-08-01T14:23:04.643Z,73885.75
2022-08-01T14:26:00.635Z,73858.81
2022-08-01T14:28:25.053Z,73839.56
2022-08-01T14:30:52.105Z,73777.94
2022-08-01T14:33:21.971Z,73756.75
2022-08-01T14:36:05.443Z,73774.09
2022-08-01T14:38:35.798Z,73739.44
2022-08-01T14:41:04.655Z,73729.81
2022-08-01T14:43:33.904Z,73720.19
2022-08-01T14:46:05.794Z,73729.81
2022-08-01T14:48:32.871Z,73781.78
2022-08-01T14:51:03.827Z,73793.34
2022-08-01T14:53:34.309Z,73733.66
2022-08-01T14:56:06.832Z,73704.78
2022-08-01T14:58:34.110Z,73725.94
2022-08-01T15:01:01.678Z,73820.28
2022-08-01T15:03:28.727Z,73858.81
2022-08-01T15:05:55.535Z,73864.59
2022-08-01T15:08:22.359Z,73916.56
2022-08-01T15:10:49.167Z,73912.72
2022-08-01T15:13:15.938Z,73970.50
2022-08-01T15:15:42.738Z,73985.91
2022-08-01T15:18:09.922Z,74034.03
2022-08-01T15:20:37.060Z,74055.22
2022-08-01T15:23:03.818Z,74051.38
2022-08-01T15:25:41.810Z,74084.09
2022-08-01T15:28:10.685Z,74112.97
2022-08-01T15:30:37.562Z,74143.78
2022-08-01T15:33:04.517Z,74166.91
2022-08-01T15:35:31.745Z,74176.53
2022-08-01T15:37:58.794Z,74170.75
2022-08-01T15:40:25.697Z,74180.38
2022-08-01T15:42:53.273Z,74186.16
2022-08-01T15:45:45.827Z,74197.72
2022-08-01T15:48:09.004Z,74222.75
2022-08-01T15:50:38.682Z,74220.81
2022-08-01T15:53:06.842Z,74216.97
2022-08-01T15:55:38.220Z,74209.25
2022-08-01T15:58:06.129Z,74220.81
2022-08-01T16:00:39.680Z,74203.50
2022-08-01T16:03:10.589Z,74220.81
2022-08-01T16:05:42.958Z,74215.03
2022-08-01T16:08:14.314Z,74209.25
2022-08-01T16:10:41.602Z,74201.56
2022-08-01T16:13:09.631Z,74186.16
2022-08-01T16:15:38.222Z,74178.47
2022-08-01T16:18:10.018Z,74159.19
2022-08-01T16:20:42.764Z,74157.28
2022-08-01T16:23:10.414Z,74172.69
2022-08-01T16:25:39.644Z,74182.31
2022-08-01T16:28:07.693Z,74209.25
2022-08-01T16:30:34.538Z,74186.16
2022-08-01T16:33:05.527Z,74161.13
2022-08-01T16:35:51.556Z,74147.66
2022-08-01T16:38:22.049Z,74132.25
2022-08-01T16:40:51.337Z,74147.66
2022-08-01T16:43:19.932Z,74130.31
2022-08-01T16:45:46.956Z,74139.94
2022-08-01T16:48:21.791Z,74141.88
2022-08-01T16:50:49.975Z,74143.78
2022-08-01T16:53:18.162Z,74139.94
2022-08-01T16:55:50.146Z,74155.34
2022-08-01T16:58:27.261Z,74182.31
2022-08-01T17:00:56.833Z,74174.59
2022-08-01T17:03:51.774Z,74190.00
2022-08-01T17:06:12.544Z,74213.13
2022-08-01T17:08:46.563Z,74216.97
2022-08-01T17:13:55.955Z,74197.72
2022-08-01T17:16:23.015Z,74197.72
2022-08-01T17:18:49.926Z,74174.59
2022-08-01T17:21:20.085Z,74166.91
2022-08-01T17:23:46.967Z,74170.75
2022-08-01T17:26:16.835Z,74174.59
2022-08-01T17:28:43.860Z,74170.75
2022-08-01T17:31:10.855Z,74190.00
2022-08-01T17:33:45.304Z,74199.63
2022-08-01T17:36:15.159Z,74213.13
2022-08-01T17:38:42.093Z,74220.81
2022-08-01T17:41:10.569Z,74216.97
2022-08-01T17:43:38.938Z,74213.13
2022-08-01T17:46:05.856Z,74207.34
2022-08-01T17:48:32.673Z,74201.56
2022-08-01T17:51:01.929Z,74215.03
2022-08-01T17:53:28.778Z,74216.97
2022-08-01T17:55:58.644Z,74232.38
2022-08-01T17:58:33.781Z,74230.44
2022-08-01T18:01:15.497Z,74236.22
2022-08-01T18:03:44.994Z,74236.22
2022-08-01T18:06:14.388Z,74240.06
2022-08-01T18:08:43.098Z,74255.47
2022-08-01T18:11:10.379Z,74265.13
2022-08-01T18:13:40.536Z,74282.44
2022-08-01T18:16:11.087Z,74301.69
2022-08-01T18:18:39.153Z,74328.66
2022-08-01T18:21:07.913Z,74347.91
2022-08-01T18:23:35.212Z,74367.19
2022-08-01T18:26:02.887Z,74386.44
2022-08-01T18:28:36.488Z,74405.69
2022-08-01T18:31:06.740Z,74424.94
2022-08-01T18:33:36.524Z,74432.66
2022-08-01T18:36:04.593Z,74448.06
2022-08-01T18:38:35.161Z,74457.69
2022-08-01T18:41:05.613Z,74475.03
2022-08-01T18:43:32.398Z,74488.50
2022-08-01T18:46:01.308Z,74498.13
2022-08-01T18:48:28.201Z,74513.53
2022-08-01T18:50:55.158Z,74521.25
2022-08-01T18:53:24.033Z,74528.94
2022-08-01T18:55:50.978Z,74552.06
2022-08-01T18:58:17.752Z,74571.31
2022-08-01T19:00:44.574Z,74575.16
2022-08-01T19:03:13.169Z,74579.03
2022-08-01T19:05:39.887Z,74584.81
2022-08-01T19:08:09.250Z,74592.50
2022-08-01T19:10:36.995Z,74598.28
2022-08-01T19:13:03.936Z,74609.84
2022-08-01T19:15:30.959Z,74605.97
2022-08-01T19:17:59.780Z,74619.47
2022-08-01T19:20:27.155Z,74629.09
2022-08-01T19:22:54.162Z,74638.72
2022-08-01T19:25:21.153Z,74646.44
2022-08-01T19:27:50.048Z,74663.75
2022-08-01T19:30:18.837Z,74667.63
2022-08-01T19:32:47.491Z,74681.09
2022-08-01T19:35:17.276Z,74688.81
2022-08-01T19:37:47.192Z,74700.34
2022-08-01T19:40:27.245Z,74713.84
2022-08-01T19:42:57.145Z,74721.53
2022-08-01T19:45:28.534Z,74735.03
2022-08-01T19:47:56.578Z,74748.50
2022-08-01T19:50:28.654Z,74752.34
2022-08-01T19:52:57.448Z,74756.22
2022-08-01T19:55:25.374Z,74756.22
2022-08-01T20:00:42.772Z,74750.44
2022-08-01T20:03:11.789Z,74746.56
2022-08-01T20:05:39.277Z,74744.66
2022-08-01T20:08:07.432Z,74748.50
2022-08-01T20:10:37.580Z,74750.44
2022-08-01T20:13:05.538Z,74754.28
2022-08-01T20:15:32.735Z,74756.22
2022-08-01T20:18:00.802Z,74767.75
2022-08-01T20:20:28.018Z,74771.63
2022-08-01T20:22:57.008Z,74775.47
2022-08-01T20:25:33.554Z,74763.91
2022-08-01T20:28:11.532Z,74760.06
2022-08-01T20:30:39.400Z,74746.56
2022-08-01T20:33:07.872Z,74740.81
2022-08-01T20:35:52.169Z,74736.94
2022-08-01T20:38:23.885Z,74729.25
2022-08-01T20:40:53.229Z,74729.25
2022-08-01T20:43:22.165Z,74744.66
2022-08-01T20:45:53.378Z,74744.66
2022-08-01T20:48:20.639Z,74752.34
2022-08-01T20:51:07.408Z,74760.06
2022-08-01T20:53:40.783Z,74763.91
2022-08-01T20:56:16.978Z,74767.75
2022-08-01T20:59:06.352Z,74775.47
2022-08-01T21:01:47.878Z,74785.09
2022-08-01T21:04:43.519Z,74794.72
2022-08-01T21:07:32.479Z,74798.59
2022-08-01T21:10:08.561Z,74804.34
2022-08-01T21:12:48.481Z,74806.28
2022-08-01T21:15:15.493Z,74800.50
2022-08-01T21:17:55.999Z,74808.22
2022-08-01T21:20:28.735Z,74821.69
2022-08-01T21:23:08.956Z,74823.63
2022-08-01T21:25:39.176Z,74825.53
2022-08-01T21:28:06.360Z,74833.25
2022-08-01T21:30:36.460Z,74833.25
2022-08-01T21:33:06.826Z,74833.25
2022-08-01T21:35:35.408Z,74835.19
2022-08-01T21:38:05.909Z,74831.31
2022-08-01T21:40:35.122Z,74837.09
2022-08-01T21:43:03.879Z,74837.09
2022-08-01T21:45:34.243Z,74850.59
2022-08-01T21:48:01.343Z,74860.22
2022-08-01T21:50:30.480Z,74860.22
2022-08-01T21:53:11.624Z,74867.91
2022-08-01T21:56:14.455Z,74877.56
2022-08-01T21:59:20.764Z,74875.63
2022-08-01T22:02:15.704Z,74887.19
2022-08-01T22:04:55.551Z,74898.72
2022-08-01T22:07:23.036Z,74918.00
2022-08-01T22:09:50.755Z,74925.69
2022-08-01T22:12:19.063Z,74929.56
2022-08-01T22:14:51.440Z,74933.41
2022-08-01T22:17:22.724Z,74929.56
2022-08-01T22:19:54.080Z,74931.47
2022-08-01T22:22:44.167Z,74933.41
2022-08-01T22:25:11.094Z,74937.25
2022-08-01T22:28:05.546Z,74935.34
2022-08-01T22:30:29.263Z,74937.25
2022-08-01T22:33:15.818Z,74948.81
2022-08-01T22:35:49.834Z,74956.53
2022-08-01T22:38:18.831Z,74960.38
2022-08-01T22:40:50.596Z,74956.53
2022-08-01T22:43:26.423Z,74943.03
2022-08-01T22:46:29.079Z,74927.63
2022-08-01T22:48:59.808Z,74929.56
2022-08-01T22:51:38.395Z,74929.56
2022-08-01T22:54:13.191Z,74929.56
2022-08-01T22:56:49.708Z,74933.41
2022-08-01T22:59:43.087Z,74918.00
2022-08-01T23:02:14.892Z,74918.00
2022-08-01T23:04:48.021Z,74902.59
2022-08-01T23:07:28.366Z,74877.56
2022-08-01T23:09:57.085Z,74871.78
2022-08-01T23:12:26.032Z,74864.06
2022-08-01T23:14:57.630Z,74864.06
2022-08-01T23:17:29.068Z,74856.38
2022-08-01T23:20:05.539Z,74866.00
2022-08-01T23:22:35.209Z,74852.50
2022-08-01T23:25:08.079Z,74854.44
2022-08-01T23:27:51.572Z,74852.50
2022-08-01T23:30:34.043Z,74864.06
2022-08-01T23:33:01.435Z,74871.78
2022-08-01T23:35:30.042Z,74875.63
2022-08-01T23:37:58.748Z,74883.31
2022-08-01T23:40:29.473Z,74875.63
2022-08-01T23:42:56.484Z,74887.19
2022-08-01T23:45:23.720Z,74887.19
2022-08-01T23:47:51.152Z,74887.19
2022-08-01T23:50:18.482Z,74892.97
2022-08-01T23:52:48.509Z,74902.59
2022-08-01T23:55:17.638Z,74906.44
2022-08-01T23:57:44.424Z,74918.00
